Terminal Aerodrome Forecast
Issued by NWS Billings, MT

Home | Current Version | Previous Version | Text Only | Print | Product List | Glossary On
Versions: 1 2 3 4 5 6 7 8 9 10 11 12 13 14 15 16
000
FTUS45 KBYZ 170525
TAFMLS
TAF
KMLS 170525Z 1706/1806 23010KT P6SM SKC
     FM171000 25016G25KT P6SM SKC
     FM171900 23015G24KT P6SM SKC
     FM172300 21011KT P6SM SKC
     FM180200 22025G35KT P6SM SKC=

USA.gov is the U.S. government's official web portal to all federal, state and local government web resources and services.